createdAt,value
2017-11-17T00:00:03.366Z,19.97
2017-11-17T00:02:31.437Z,19.77
2017-11-17T00:04:59.792Z,18.43
2017-11-17T00:07:28.125Z,18.50
2017-11-17T00:09:56.446Z,19.33
2017-11-17T00:12:25.533Z,18.93
2017-11-17T00:14:58.230Z,19.27
2017-11-17T00:17:27.302Z,18.30
2017-11-17T00:19:55.635Z,17.87
2017-11-17T00:22:23.953Z,17.63
2017-11-17T00:24:53.081Z,18.30
2017-11-17T00:27:22.157Z,18.63
2017-11-17T00:29:51.228Z,18.00
2017-11-17T00:32:19.553Z,19.00
2017-11-17T00:34:48.621Z,17.50
2017-11-17T00:37:16.952Z,17.07
2017-11-17T00:39:45.276Z,17.00
2017-11-17T00:42:13.605Z,17.40
2017-11-17T00:44:41.912Z,16.33
2017-11-17T00:47:10.244Z,18.53
2017-11-17T00:49:38.554Z,17.70
2017-11-17T00:52:06.879Z,19.13
2017-11-17T00:54:35.957Z,18.60
2017-11-17T00:57:04.281Z,19.70
2017-11-17T00:59:32.593Z,20.43
2017-11-17T01:02:01.627Z,19.13
2017-11-17T01:04:29.953Z,19.37
2017-11-17T01:06:58.281Z,20.60
2017-11-17T01:09:27.356Z,22.07
2017-11-17T01:11:55.688Z,20.43
2017-11-17T01:14:23.998Z,21.63
2017-11-17T01:16:52.324Z,21.50
2017-11-17T01:19:21.393Z,19.60
2017-11-17T01:21:49.726Z,24.40
2017-11-17T01:24:18.033Z,20.80
2017-11-17T01:26:46.372Z,20.67
2017-11-17T01:29:14.681Z,21.20
2017-11-17T01:31:43.007Z,21.07
2017-11-17T01:34:12.083Z,20.27
2017-11-17T01:36:40.429Z,22.37
2017-11-17T01:39:08.736Z,22.60
2017-11-17T01:41:37.070Z,21.83
2017-11-17T01:44:05.417Z,21.30
2017-11-17T01:46:34.491Z,21.50
2017-11-17T01:49:02.830Z,22.10
2017-11-17T01:51:31.911Z,22.30
2017-11-17T01:54:00.264Z,21.07
2017-11-17T01:56:29.338Z,23.17
2017-11-17T01:58:57.687Z,21.70
2017-11-17T02:01:26.023Z,20.93
2017-11-17T02:03:55.113Z,22.50
2017-11-17T02:06:24.193Z,22.73
2017-11-17T02:08:52.550Z,22.37
2017-11-17T02:11:20.885Z,20.90
2017-11-17T02:13:49.185Z,24.50
2017-11-17T02:16:17.520Z,22.70
2017-11-17T02:18:46.737Z,23.17
2017-11-17T02:21:15.833Z,23.97
2017-11-17T02:23:44.144Z,25.77
2017-11-17T02:26:12.493Z,24.37
2017-11-17T02:28:40.805Z,24.40
2017-11-17T02:31:09.138Z,25.17
2017-11-17T02:33:37.484Z,23.10
2017-11-17T02:36:05.837Z,25.13
2017-11-17T02:38:34.160Z,26.17
2017-11-17T02:41:03.289Z,25.40
2017-11-17T02:43:31.632Z,24.90
2017-11-17T02:45:59.942Z,25.57
2017-11-17T02:48:28.308Z,27.07
2017-11-17T02:50:56.647Z,25.47
2017-11-17T02:53:24.990Z,25.87
2017-11-17T02:55:53.297Z,26.63
2017-11-17T02:58:21.702Z,25.57
2017-11-17T03:00:50.008Z,26.83
2017-11-17T03:03:18.388Z,26.60
2017-11-17T03:05:47.469Z,24.47
2017-11-17T03:08:15.803Z,26.23
2017-11-17T03:10:44.134Z,26.60
2017-11-17T03:13:13.287Z,26.80
2017-11-17T03:15:41.676Z,26.83
2017-11-17T03:18:10.029Z,25.20
2017-11-17T03:20:38.368Z,28.20
2017-11-17T03:23:07.472Z,26.80
2017-11-17T03:25:36.550Z,26.87
2017-11-17T03:28:05.661Z,27.03
2017-11-17T03:30:33.989Z,24.70
2017-11-17T03:33:02.328Z,25.90
2017-11-17T03:35:31.401Z,26.07
2017-11-17T03:37:59.738Z,28.20
2017-11-17T03:40:28.044Z,26.40
2017-11-17T03:42:56.383Z,25.80
2017-11-17T03:45:24.690Z,27.50
2017-11-17T03:47:53.020Z,26.50
2017-11-17T03:50:21.337Z,26.50
2017-11-17T03:52:49.672Z,26.10
2017-11-17T03:55:17.980Z,29.80
2017-11-17T03:57:46.604Z,26.50
2017-11-17T04:00:14.951Z,26.27
2017-11-17T04:02:46.958Z,27.47
2017-11-17T04:05:15.271Z,27.07
2017-11-17T04:07:43.623Z,27.97
2017-11-17T04:10:12.685Z,27.77
2017-11-17T04:12:41.035Z,28.90
2017-11-17T04:15:09.351Z,27.70
2017-11-17T04:17:37.687Z,28.80
2017-11-17T04:20:07.952Z,28.70
2017-11-17T04:22:36.301Z,27.17
2017-11-17T04:25:04.659Z,27.70
2017-11-17T04:27:32.976Z,29.70
2017-11-17T04:30:03.350Z,27.93
2017-11-17T04:32:32.438Z,28.10
2017-11-17T04:35:01.539Z,28.70
2017-11-17T04:37:30.610Z,29.37
2017-11-17T04:39:58.946Z,25.70
2017-11-17T04:42:27.250Z,26.73
2017-11-17T04:44:55.612Z,28.37
2017-11-17T04:47:23.908Z,26.57
2017-11-17T04:49:55.993Z,25.27
2017-11-17T04:52:24.306Z,25.47
2017-11-17T04:54:53.404Z,25.90
2017-11-17T04:57:21.734Z,24.30
2017-11-17T04:59:50.043Z,25.90
2017-11-17T05:02:19.133Z,23.27
2017-11-17T05:04:48.216Z,24.67
2017-11-17T05:07:16.550Z,24.50
2017-11-17T05:09:46.800Z,25.70
2017-11-17T05:12:15.130Z,26.50
2017-11-17T05:14:44.192Z,26.10
2017-11-17T05:17:12.531Z,25.80
2017-11-17T05:19:40.846Z,25.30
2017-11-17T05:22:09.186Z,26.03
2017-11-17T05:24:37.498Z,26.20
2017-11-17T05:27:06.818Z,26.70
2017-11-17T05:29:35.129Z,26.57
2017-11-17T05:32:07.035Z,27.80
2017-11-17T05:34:35.342Z,41.27
2017-11-17T05:37:04.442Z,31.50
2017-11-17T05:39:33.530Z,24.67
2017-11-17T05:42:01.857Z,21.70
2017-11-17T05:44:30.166Z,22.50
2017-11-17T05:46:58.507Z,22.17
2017-11-17T05:49:27.582Z,23.57
2017-11-17T05:51:56.716Z,23.60
2017-11-17T05:54:25.029Z,22.00
2017-11-17T05:56:53.372Z,23.83
2017-11-17T05:59:21.682Z,21.73
2017-11-17T06:01:50.032Z,22.80
2017-11-17T06:04:18.334Z,22.67
2017-11-17T06:06:46.664Z,23.83
2017-11-17T06:09:14.977Z,22.50
2017-11-17T06:11:43.329Z,25.03
2017-11-17T06:14:11.633Z,23.50
2017-11-17T06:16:39.938Z,22.90
2017-11-17T06:19:08.296Z,24.50
2017-11-17T06:21:36.607Z,26.10
2017-11-17T06:24:05.703Z,21.83
2017-11-17T06:26:34.782Z,23.30
2017-11-17T06:29:03.222Z,22.93
2017-11-17T06:31:31.521Z,23.83
2017-11-17T06:33:59.877Z,22.70
2017-11-17T06:36:28.181Z,21.60
2017-11-17T06:38:56.506Z,21.47
2017-11-17T06:41:25.582Z,23.77
2017-11-17T06:43:53.922Z,25.87
2017-11-17T06:46:22.241Z,25.00
2017-11-17T06:48:50.571Z,25.00
2017-11-17T06:51:18.886Z,23.80
2017-11-17T06:53:47.217Z,23.97
2017-11-17T06:56:15.530Z,25.60
2017-11-17T06:58:43.868Z,21.90
2017-11-17T07:01:12.189Z,24.70
2017-11-17T07:03:40.542Z,22.90
2017-11-17T07:06:08.860Z,23.27
2017-11-17T07:08:37.167Z,23.20
2017-11-17T07:11:05.529Z,27.73
2017-11-17T07:13:34.626Z,23.40
2017-11-17T07:16:03.730Z,24.60
2017-11-17T07:18:32.803Z,25.80
2017-11-17T07:21:01.142Z,34.00
2017-11-17T07:23:29.444Z,30.10
2017-11-17T07:25:57.774Z,29.50
2017-11-17T07:28:26.083Z,31.40
2017-11-17T07:30:54.412Z,26.23
2017-11-17T07:33:22.726Z,29.53
2017-11-17T07:35:51.060Z,27.30
2017-11-17T07:38:19.375Z,28.37
2017-11-17T07:40:47.721Z,32.10
2017-11-17T07:43:16.803Z,28.40
2017-11-17T07:45:45.118Z,30.60
2017-11-17T07:48:14.213Z,28.57
2017-11-17T07:50:42.529Z,24.60
2017-11-17T07:53:10.850Z,24.40
2017-11-17T07:55:39.156Z,28.87
2017-11-17T07:58:07.492Z,26.17
2017-11-17T08:00:35.803Z,27.43
2017-11-17T08:03:04.154Z,25.83
2017-11-17T08:05:32.463Z,27.10
2017-11-17T08:08:01.559Z,26.43
2017-11-17T08:10:29.876Z,26.90
2017-11-17T08:12:58.202Z,26.20
2017-11-17T08:15:27.276Z,27.00
2017-11-17T08:20:56.218Z,25.77
2017-11-17T08:23:25.301Z,25.03
2017-11-17T08:25:53.610Z,29.83
2017-11-17T08:28:21.933Z,27.63
2017-11-17T08:30:50.270Z,25.00
2017-11-17T08:33:18.607Z,26.97
2017-11-17T08:35:46.914Z,25.03
2017-11-17T08:38:16.008Z,25.60
2017-11-17T08:40:45.071Z,25.57
2017-11-17T08:43:13.396Z,24.90
2017-11-17T08:45:41.709Z,23.73
2017-11-17T08:48:10.034Z,25.13
2017-11-17T08:50:39.102Z,24.73
2017-11-17T08:53:07.447Z,24.73
2017-11-17T08:55:35.778Z,24.13
2017-11-17T08:58:04.074Z,23.77
2017-11-17T09:00:33.159Z,22.60
2017-11-17T09:03:02.243Z,24.00
2017-11-17T09:05:30.566Z,21.40
2017-11-17T09:07:58.870Z,22.37
2017-11-17T09:10:27.201Z,20.37
2017-11-17T09:12:56.280Z,23.60
2017-11-17T09:15:25.386Z,20.90
2017-11-17T09:17:54.451Z,21.70
2017-11-17T09:20:22.800Z,18.80
2017-11-17T09:22:51.106Z,22.10
2017-11-17T09:25:19.421Z,20.13
2017-11-17T09:27:48.505Z,19.77
2017-11-17T09:30:17.561Z,19.67
2017-11-17T09:32:45.883Z,20.93
2017-11-17T09:35:14.957Z,18.53
2017-11-17T09:37:43.283Z,20.33
2017-11-17T09:40:11.583Z,19.17
2017-11-17T09:42:39.910Z,19.83
2017-11-17T09:45:08.980Z,20.80
2017-11-17T09:47:37.321Z,18.00
2017-11-17T09:50:05.627Z,16.90
2017-11-17T09:52:33.963Z,20.83
2017-11-17T09:55:02.256Z,18.50
2017-11-17T09:57:30.593Z,18.63
2017-11-17T09:59:58.898Z,18.67
2017-11-17T10:02:27.230Z,20.07
2017-11-17T10:04:55.564Z,20.20
2017-11-17T10:07:23.869Z,18.77
2017-11-17T10:09:52.188Z,19.20
2017-11-17T10:12:21.252Z,31.30
2017-11-17T10:14:49.599Z,18.67
2017-11-17T10:17:17.906Z,17.23
2017-11-17T10:19:46.240Z,18.97
2017-11-17T10:22:14.547Z,27.40
2017-11-17T10:24:42.900Z,27.90
2017-11-17T10:27:11.211Z,16.60
2017-11-17T10:29:39.578Z,16.27
2017-11-17T10:32:07.901Z,19.10
2017-11-17T10:34:36.198Z,21.17
2017-11-17T10:37:05.310Z,15.33
2017-11-17T10:39:34.370Z,16.73
2017-11-17T10:42:02.681Z,18.97
2017-11-17T10:44:30.995Z,15.60
2017-11-17T10:46:59.327Z,16.10
2017-11-17T10:49:28.394Z,17.90
2017-11-17T10:51:56.727Z,17.47
2017-11-17T10:54:25.020Z,18.80
2017-11-17T10:56:56.792Z,19.10
2017-11-17T10:59:25.099Z,17.63
2017-11-17T11:01:53.394Z,21.10
2017-11-17T11:04:22.478Z,22.70
2017-11-17T11:06:51.541Z,22.73
2017-11-17T11:09:19.870Z,23.03
2017-11-17T11:11:52.774Z,18.20
2017-11-17T11:14:21.092Z,19.43
2017-11-17T11:16:49.397Z,35.13
2017-11-17T11:19:18.491Z,28.50
2017-11-17T11:21:46.790Z,24.40
2017-11-17T11:24:16.043Z,33.77
2017-11-17T11:26:44.341Z,27.23
2017-11-17T11:29:12.665Z,32.80
2017-11-17T11:31:40.979Z,19.20
2017-11-17T11:34:09.313Z,21.10
2017-11-17T11:36:37.628Z,25.97
2017-11-17T11:39:05.977Z,25.20
2017-11-17T11:41:34.280Z,30.20
2017-11-17T11:44:02.578Z,32.97
2017-11-17T11:46:30.897Z,20.77
2017-11-17T11:48:59.197Z,24.23
2017-11-17T11:51:27.529Z,31.97
2017-11-17T11:53:55.832Z,29.93
2017-11-17T11:56:24.196Z,29.37
2017-11-17T11:58:53.275Z,24.70
2017-11-17T12:01:21.603Z,30.50
2017-11-17T12:03:49.908Z,23.17
2017-11-17T12:06:18.237Z,24.80
2017-11-17T12:08:46.557Z,28.00
2017-11-17T12:11:14.896Z,43.60
2017-11-17T12:13:43.967Z,39.03
2017-11-17T12:16:12.291Z,40.67
2017-11-17T12:18:40.588Z,41.73
2017-11-17T12:21:08.900Z,35.40
2017-11-17T12:23:38.015Z,29.17
2017-11-17T12:26:07.098Z,26.00
2017-11-17T12:28:35.424Z,26.20
2017-11-17T12:31:03.740Z,27.80
2017-11-17T12:33:32.085Z,30.03
2017-11-17T12:36:00.413Z,36.10
2017-11-17T12:38:29.554Z,39.70
2017-11-17T12:40:57.899Z,24.10
2017-11-17T12:43:27.017Z,26.83
2017-11-17T12:45:55.343Z,50.27
2017-11-17T12:48:23.711Z,27.27
2017-11-17T12:50:52.032Z,28.37
2017-11-17T12:53:21.146Z,20.67
2017-11-17T12:55:49.486Z,21.40
2017-11-17T12:58:17.846Z,21.77
2017-11-17T13:00:46.175Z,22.90
2017-11-17T13:03:14.543Z,22.00
2017-11-17T13:05:43.628Z,22.23
2017-11-17T13:08:11.943Z,22.30
2017-11-17T13:10:40.286Z,23.90
2017-11-17T13:13:09.379Z,21.70
2017-11-17T13:15:41.835Z,22.60
2017-11-17T13:18:10.150Z,21.30
2017-11-17T13:20:39.257Z,22.43
2017-11-17T13:23:07.559Z,22.80
2017-11-17T13:25:35.906Z,22.10
2017-11-17T13:28:04.987Z,21.40
2017-11-17T13:30:33.308Z,22.30
2017-11-17T13:33:01.638Z,21.63
2017-11-17T13:35:30.016Z,20.73
2017-11-17T13:37:58.358Z,21.30
2017-11-17T13:40:26.660Z,21.73
2017-11-17T13:42:54.985Z,22.47
2017-11-17T13:45:23.299Z,22.43
2017-11-17T13:47:51.646Z,23.07
2017-11-17T13:50:20.025Z,21.93
2017-11-17T13:52:48.362Z,21.03
2017-11-17T13:55:16.676Z,23.37
2017-11-17T13:57:45.001Z,24.07
2017-11-17T14:00:13.327Z,22.90
2017-11-17T14:02:41.678Z,21.17
2017-11-17T14:05:09.995Z,22.43
2017-11-17T14:07:38.298Z,22.60
2017-11-17T14:10:06.639Z,22.77
2017-11-17T14:12:35.721Z,22.43
2017-11-17T14:15:04.072Z,25.43
2017-11-17T14:17:32.404Z,28.37
2017-11-17T14:20:01.182Z,24.20
2017-11-17T14:22:30.275Z,24.10
2017-11-17T14:24:58.646Z,21.97
2017-11-17T14:27:27.729Z,22.10
2017-11-17T14:29:56.082Z,23.40
2017-11-17T14:32:24.400Z,22.80
2017-11-17T14:34:53.510Z,25.00
2017-11-17T14:37:21.833Z,27.73
2017-11-17T14:39:50.167Z,25.90
2017-11-17T14:42:19.295Z,25.17
2017-11-17T14:44:47.601Z,25.23
2017-11-17T14:47:15.938Z,24.03
2017-11-17T14:49:44.263Z,24.17
2017-11-17T14:52:12.602Z,26.50
2017-11-17T14:54:40.920Z,23.73
2017-11-17T14:57:09.246Z,30.37
2017-11-17T14:59:37.566Z,25.47
2017-11-17T15:02:05.895Z,25.10
2017-11-17T15:04:34.210Z,23.67
2017-11-17T15:07:02.567Z,25.07
2017-11-17T15:09:30.874Z,27.00
2017-11-17T15:11:59.204Z,28.20
2017-11-17T15:14:28.269Z,26.50
2017-11-17T15:16:56.609Z,23.33
2017-11-17T15:19:24.927Z,24.13
2017-11-17T15:21:53.263Z,26.57
2017-11-17T15:24:21.579Z,22.73
2017-11-17T15:26:49.952Z,24.60
2017-11-17T15:29:18.264Z,24.03
2017-11-17T15:31:47.372Z,26.30
2017-11-17T15:34:16.453Z,27.10
2017-11-17T15:36:44.762Z,26.40
2017-11-17T15:39:13.102Z,26.50
2017-11-17T15:41:41.452Z,30.87
2017-11-17T15:44:09.806Z,26.30
2017-11-17T15:46:38.140Z,27.00
2017-11-17T15:49:06.494Z,26.37
2017-11-17T15:51:34.810Z,26.97
2017-11-17T15:54:06.107Z,25.53
2017-11-17T15:56:34.409Z,25.20
2017-11-17T15:59:02.756Z,25.13
2017-11-17T16:01:31.067Z,26.10
2017-11-17T16:03:59.436Z,25.80
2017-11-17T16:06:27.755Z,25.57
2017-11-17T16:08:56.854Z,28.47
2017-11-17T16:11:25.174Z,25.93
2017-11-17T16:13:53.519Z,24.87
2017-11-17T16:16:21.816Z,25.60
2017-11-17T16:18:50.165Z,26.40
2017-11-17T16:21:19.240Z,26.70
2017-11-17T16:23:47.543Z,27.27
2017-11-17T16:26:16.648Z,30.80
2017-11-17T16:28:44.971Z,40.73
2017-11-17T16:31:13.316Z,40.07
2017-11-17T16:33:41.615Z,38.20
2017-11-17T16:36:09.963Z,26.43
2017-11-17T16:38:38.296Z,26.07
2017-11-17T16:41:06.623Z,25.53
2017-11-17T16:43:34.946Z,25.57
2017-11-17T16:46:03.265Z,25.20
2017-11-17T16:48:31.595Z,24.40
2017-11-17T16:50:59.925Z,25.53
2017-11-17T16:53:28.289Z,26.50
2017-11-17T16:55:56.612Z,26.73
2017-11-17T16:58:24.924Z,26.70
2017-11-17T17:00:53.262Z,26.17
2017-11-17T17:03:21.576Z,27.70
2017-11-17T17:05:49.921Z,26.50
2017-11-17T17:08:18.217Z,26.13
2017-11-17T17:10:46.558Z,27.50
2017-11-17T17:13:14.885Z,28.10
2017-11-17T17:15:43.215Z,29.67
2017-11-17T17:18:11.550Z,27.40
2017-11-17T17:20:39.905Z,29.37
2017-11-17T17:23:08.209Z,25.27
2017-11-17T17:25:36.537Z,25.90
2017-11-17T17:28:04.894Z,30.03
2017-11-17T17:30:33.224Z,28.47
2017-11-17T17:33:01.561Z,29.03
2017-11-17T17:35:30.652Z,28.17
2017-11-17T17:37:59.766Z,31.20
2017-11-17T17:40:28.073Z,28.43
2017-11-17T17:42:56.431Z,30.43
2017-11-17T17:45:24.750Z,31.30
2017-11-17T17:47:53.855Z,29.27
2017-11-17T17:53:15.621Z,29.97
2017-11-17T17:55:44.697Z,32.17
2017-11-17T17:58:13.082Z,29.50
2017-11-17T18:00:41.415Z,29.50
2017-11-17T18:03:09.766Z,30.93
2017-11-17T18:05:38.159Z,36.27
2017-11-17T18:08:06.483Z,33.03
2017-11-17T18:10:34.797Z,34.00
2017-11-17T18:13:03.900Z,32.90
2017-11-17T18:15:32.987Z,31.70
2017-11-17T18:18:02.086Z,31.50
2017-11-17T18:20:31.152Z,30.83
2017-11-17T18:22:59.499Z,30.60
2017-11-17T18:25:31.035Z,33.57
2017-11-17T18:27:59.438Z,33.30
2017-11-17T18:30:27.746Z,35.00
2017-11-17T18:32:56.074Z,31.50
2017-11-17T18:35:24.396Z,30.83
2017-11-17T18:37:52.837Z,28.47
2017-11-17T18:40:21.195Z,29.83
2017-11-17T18:42:50.366Z,27.60
2017-11-17T18:45:19.620Z,31.77
2017-11-17T18:47:47.984Z,32.30
2017-11-17T18:50:17.096Z,30.47
2017-11-17T18:52:45.420Z,28.23
2017-11-17T18:55:13.757Z,28.00
2017-11-17T18:57:42.072Z,26.93
2017-11-17T19:00:10.416Z,26.33
2017-11-17T19:02:38.747Z,27.20
2017-11-17T19:05:07.137Z,26.17
2017-11-17T19:07:35.471Z,26.93
2017-11-17T19:10:03.815Z,25.87
2017-11-17T19:12:32.889Z,25.70
2017-11-17T19:15:01.248Z,27.67
2017-11-17T19:17:29.565Z,26.33
2017-11-17T19:19:57.870Z,25.60
2017-11-17T19:22:26.207Z,28.23
2017-11-17T19:24:55.294Z,28.50
2017-11-17T19:27:24.389Z,30.27
2017-11-17T19:29:53.460Z,29.30
2017-11-17T19:32:21.814Z,29.17
2017-11-17T19:34:50.128Z,30.80
2017-11-17T19:37:18.486Z,27.53
2017-11-17T19:39:46.861Z,30.13
2017-11-17T19:42:15.169Z,29.33
2017-11-17T19:44:43.507Z,29.17
2017-11-17T19:47:11.820Z,30.30
2017-11-17T19:49:40.172Z,27.50
2017-11-17T19:52:08.502Z,29.20
2017-11-17T19:54:37.661Z,25.20
2017-11-17T19:57:05.970Z,27.13
2017-11-17T19:59:35.086Z,24.53
2017-11-17T20:02:03.399Z,26.60
2017-11-17T20:04:31.783Z,28.53
2017-11-17T20:07:00.136Z,30.50
2017-11-17T20:09:28.471Z,34.00
2017-11-17T20:11:56.782Z,28.17
2017-11-17T20:14:25.174Z,30.07
2017-11-17T20:16:53.543Z,31.73
2017-11-17T20:19:21.903Z,29.80
2017-11-17T20:21:50.983Z,27.60
2017-11-17T20:24:19.328Z,26.67
2017-11-17T20:26:48.461Z,25.63
2017-11-17T20:29:16.800Z,34.93
2017-11-17T20:31:45.192Z,39.07
2017-11-17T20:34:13.516Z,30.30
2017-11-17T20:36:42.621Z,42.80
2017-11-17T20:39:11.708Z,28.60
2017-11-17T20:41:40.839Z,29.13
2017-11-17T20:44:09.216Z,28.67
2017-11-17T20:46:37.550Z,25.87
2017-11-17T20:49:06.657Z,28.03
2017-11-17T20:51:34.999Z,24.57
2017-11-17T20:54:03.310Z,26.90
2017-11-17T20:56:32.437Z,28.10
2017-11-17T20:59:00.755Z,28.90
2017-11-17T21:01:29.090Z,27.37
2017-11-17T21:03:57.427Z,23.00
2017-11-17T21:06:25.734Z,27.30
2017-11-17T21:08:54.877Z,28.03
2017-11-17T21:11:23.233Z,30.27
2017-11-17T21:13:51.551Z,31.87
2017-11-17T21:16:20.719Z,26.90
2017-11-17T21:18:49.045Z,29.97
2017-11-17T21:21:17.358Z,27.37
2017-11-17T21:23:45.701Z,28.37
2017-11-17T21:26:14.016Z,26.87
2017-11-17T21:28:42.344Z,29.53
2017-11-17T21:31:10.657Z,27.70
2017-11-17T21:33:39.775Z,30.00
2017-11-17T21:36:08.091Z,29.87
2017-11-17T21:38:36.421Z,26.93
2017-11-17T21:41:04.751Z,28.93
2017-11-17T21:43:33.091Z,31.70
2017-11-17T21:46:01.408Z,26.50
2017-11-17T21:48:29.744Z,28.13
2017-11-17T21:50:58.075Z,26.43
2017-11-17T21:53:26.422Z,27.43
2017-11-17T21:55:54.737Z,27.20
2017-11-17T21:58:23.065Z,26.50
2017-11-17T22:00:51.376Z,26.30
2017-11-17T22:03:19.726Z,29.13
2017-11-17T22:05:48.060Z,26.87
2017-11-17T22:08:17.869Z,26.90
2017-11-17T22:10:46.217Z,26.63
2017-11-17T22:13:14.542Z,28.13
2017-11-17T22:15:43.641Z,26.50
2017-11-17T22:18:12.704Z,34.80
2017-11-17T22:20:41.051Z,31.40
2017-11-17T22:23:09.358Z,27.27
2017-11-17T22:25:37.695Z,27.20
2017-11-17T22:28:06.001Z,26.70
2017-11-17T22:30:34.338Z,26.70
2017-11-17T22:33:02.657Z,26.80
2017-11-17T22:35:31.003Z,28.40
2017-11-17T22:37:59.329Z,25.80
2017-11-17T22:40:27.668Z,26.97
2017-11-17T22:42:55.991Z,25.43
2017-11-17T22:45:24.322Z,24.90
2017-11-17T22:47:52.630Z,27.30
2017-11-17T22:50:20.968Z,26.27
2017-11-17T22:52:49.294Z,24.83
2017-11-17T22:55:17.657Z,24.03
2017-11-17T22:57:45.975Z,25.57
2017-11-17T23:00:14.302Z,23.97
2017-11-17T23:02:42.615Z,23.63
2017-11-17T23:05:10.953Z,27.20
2017-11-17T23:07:39.266Z,25.67
2017-11-17T23:10:07.599Z,25.37
2017-11-17T23:12:35.909Z,27.37
2017-11-17T23:15:04.217Z,26.60
2017-11-17T23:17:32.561Z,31.17
2017-11-17T23:20:00.877Z,30.70
2017-11-17T23:22:29.240Z,30.67
2017-11-17T23:24:57.549Z,31.27
2017-11-17T23:27:26.638Z,26.77
2017-11-17T23:29:55.726Z,30.27
2017-11-17T23:32:24.071Z,30.67
2017-11-17T23:34:52.390Z,29.70
2017-11-17T23:37:20.762Z,30.97
2017-11-17T23:39:49.071Z,29.47
2017-11-17T23:42:17.416Z,28.30
2017-11-17T23:44:45.738Z,27.70
2017-11-17T23:47:14.085Z,29.00
2017-11-17T23:49:42.399Z,29.93
2017-11-17T23:52:11.701Z,28.50
2017-11-17T23:54:40.807Z,29.47
2017-11-17T23:57:09.129Z,29.30
2017-11-17T23:59:37.459Z,28.83
